createdAt,value
2023-03-05T00:01:23.061Z,96399.55
2023-03-05T00:11:30.321Z,96393.61
2023-03-05T00:21:40.657Z,96392.59
2023-03-05T00:31:44.566Z,96390.41
2023-03-05T00:41:48.010Z,96382.02
2023-03-05T00:51:52.343Z,96369.13
2023-03-05T01:01:56.404Z,96361.25
2023-03-05T01:12:00.312Z,96357.30
2023-03-05T01:22:03.491Z,96353.42
2023-03-05T01:32:06.607Z,96352.37
2023-03-05T01:42:10.267Z,96347.32
2023-03-05T01:52:20.604Z,96345.50
2023-03-05T02:02:26.021Z,96344.46
2023-03-05T02:12:29.665Z,96339.09
2023-03-05T02:22:32.885Z,96332.04
2023-03-05T02:32:35.945Z,96329.27
2023-03-05T02:42:39.658Z,96330.75
2023-03-05T02:52:43.655Z,96332.74
2023-03-05T03:02:50.568Z,96332.85
2023-03-05T03:12:53.652Z,96327.42
2023-03-05T03:22:56.684Z,96322.30
2023-03-05T03:32:59.721Z,96318.21
2023-03-05T03:43:02.917Z,96313.45
2023-03-05T03:53:06.091Z,96297.38
2023-03-05T04:03:09.396Z,96290.41
2023-03-05T04:13:12.401Z,96279.15
2023-03-05T04:23:16.197Z,96267.57
2023-03-05T04:33:20.475Z,96258.92
2023-03-05T04:43:23.618Z,96256.05
2023-03-05T04:53:26.751Z,96256.20
2023-03-05T05:03:30.411Z,96258.38
2023-03-05T05:13:34.188Z,96251.34
2023-03-05T05:23:37.740Z,96244.71
2023-03-05T05:33:41.881Z,96244.63
2023-03-05T05:43:45.012Z,96248.95
2023-03-05T05:53:48.866Z,96256.91
2023-03-05T06:03:52.442Z,96261.14
2023-03-05T06:13:56.191Z,96257.45
2023-03-05T06:23:59.312Z,96246.80
2023-03-05T06:34:02.437Z,96238.81
2023-03-05T06:44:05.915Z,96237.01
2023-03-05T06:54:13.802Z,96236.95
2023-03-05T07:04:17.526Z,96232.64
2023-03-05T07:14:20.517Z,96238.17
2023-03-05T07:24:29.111Z,96247.38
2023-03-05T07:34:32.176Z,96249.70
2023-03-05T07:44:36.331Z,96252.92
2023-03-05T07:54:39.864Z,96256.79
2023-03-05T08:04:43.410Z,96249.16
2023-03-05T08:14:48.044Z,96244.17
2023-03-05T08:24:52.290Z,96229.82
2023-03-05T08:34:59.679Z,96225.89
2023-03-05T08:45:03.732Z,96222.11
2023-03-05T08:55:07.205Z,96207.17
2023-03-05T09:05:10.850Z,96195.30
2023-03-05T09:15:13.949Z,96187.29
2023-03-05T09:25:18.215Z,96178.58
2023-03-05T09:35:21.294Z,96171.16
2023-03-05T09:45:41.557Z,96161.11
2023-03-05T09:55:51.914Z,96152.93
2023-03-05T10:06:15.172Z,96141.64
2023-03-05T10:16:36.333Z,96135.04
2023-03-05T10:27:08.271Z,96122.34
2023-03-05T10:37:30.519Z,96113.84
2023-03-05T10:47:49.666Z,96114.66
2023-03-05T10:57:52.741Z,96118.39
2023-03-05T11:07:56.038Z,96117.61
2023-03-05T11:18:25.309Z,96104.17
2023-03-05T11:28:37.981Z,96084.48
2023-03-05T11:38:51.851Z,96073.28
2023-03-05T11:48:56.826Z,96054.19
2023-03-05T11:59:11.978Z,96044.14
2023-03-05T12:09:34.037Z,96032.19
2023-03-05T12:20:07.054Z,96017.29
2023-03-05T12:30:29.487Z,96003.21
2023-03-05T12:40:35.609Z,96000.44
2023-03-05T12:50:38.591Z,95999.40
2023-03-05T13:00:53.690Z,96018.41
2023-03-05T13:11:04.168Z,96043.05
2023-03-05T13:21:18.849Z,96045.05
2023-03-05T13:31:23.212Z,96035.46
2023-03-05T13:41:28.123Z,96035.30
2023-03-05T13:51:46.796Z,96033.33
2023-03-05T14:01:50.788Z,96021.80
2023-03-05T14:12:03.111Z,96010.23
2023-03-05T14:22:06.413Z,95999.34
2023-03-05T14:32:25.485Z,96000.68
2023-03-05T14:42:33.743Z,95997.34
2023-03-05T14:52:39.100Z,95987.85
2023-03-05T15:02:42.647Z,95986.83
2023-03-05T15:12:46.367Z,95982.09
2023-03-05T15:22:49.813Z,95967.05
2023-03-05T15:32:55.386Z,95973.75
2023-03-05T15:43:01.148Z,95972.64
2023-03-05T15:53:04.323Z,95960.56
2023-03-05T16:03:07.818Z,95960.88
2023-03-05T16:13:15.479Z,95957.99
2023-03-05T16:23:18.839Z,95956.86
2023-03-05T16:33:22.430Z,95950.95
2023-03-05T16:43:25.859Z,95952.72
2023-03-05T16:53:28.923Z,95940.36
2023-03-05T17:03:32.097Z,95934.34
2023-03-05T17:14:00.972Z,95941.98
2023-03-05T17:24:04.240Z,95946.61
2023-03-05T17:34:07.956Z,95954.42
2023-03-05T17:44:12.142Z,95954.13
2023-03-05T17:54:15.938Z,95955.35
2023-03-05T18:04:19.669Z,95950.13
2023-03-05T18:14:22.799Z,95951.84
2023-03-05T18:24:25.845Z,95953.44
2023-03-05T18:34:29.730Z,95960.83
2023-03-05T18:44:32.963Z,95958.55
2023-03-05T18:54:35.976Z,95956.98
2023-03-05T19:04:39.133Z,95950.33
2023-03-05T19:14:42.373Z,95952.44
2023-03-05T19:24:45.520Z,95953.92
2023-03-05T19:34:48.809Z,95959.59
2023-03-05T19:44:51.966Z,95955.23
2023-03-05T19:54:55.011Z,95961.80
2023-03-05T20:04:59.214Z,95965.98
2023-03-05T20:15:03.871Z,95965.09
2023-03-05T20:25:07.646Z,95957.12
2023-03-05T20:35:15.359Z,95948.43
2023-03-05T20:45:18.746Z,95940.30
2023-03-05T20:55:23.570Z,95929.04
2023-03-05T21:05:31.437Z,95923.65
2023-03-05T21:15:34.442Z,95915.02
2023-03-05T21:25:37.562Z,95914.98
2023-03-05T21:35:41.914Z,95911.53
2023-03-05T21:45:49.278Z,95903.33
2023-03-05T21:56:02.768Z,95888.06
2023-03-05T22:06:14.099Z,95879.70
2023-03-05T22:16:23.294Z,95876.19
2023-03-05T22:26:34.925Z,95874.14
2023-03-05T22:36:38.057Z,95870.05
2023-03-05T22:46:41.133Z,95863.58
2023-03-05T22:56:44.766Z,95851.73
2023-03-05T23:06:48.782Z,95847.89
2023-03-05T23:16:51.801Z,95845.31
2023-03-05T23:26:54.846Z,95836.71
2023-03-05T23:37:00.552Z,95825.96
2023-03-05T23:47:03.854Z,95829.30
2023-03-05T23:57:07.074Z,95832.69
